createdAt,value
2017-07-18T00:00:53.995Z,4.90
2017-07-18T00:03:20.642Z,5.10
2017-07-18T00:05:47.246Z,4.93
2017-07-18T00:08:13.913Z,5.37
2017-07-18T00:10:40.529Z,5.23
2017-07-18T00:13:07.173Z,5.27
2017-07-18T00:15:33.811Z,5.30
2017-07-18T00:18:00.456Z,5.50
2017-07-18T00:20:27.073Z,5.33
2017-07-18T00:22:53.888Z,4.93
2017-07-18T00:25:20.498Z,5.57
2017-07-18T00:27:47.105Z,5.13
2017-07-18T00:30:13.908Z,5.37
2017-07-18T00:32:40.522Z,5.73
2017-07-18T00:35:07.235Z,4.97
2017-07-18T00:37:34.057Z,6.20
2017-07-18T00:40:00.691Z,5.37
2017-07-18T00:42:27.298Z,5.00
2017-07-18T00:44:53.959Z,5.17
2017-07-18T00:47:20.568Z,5.50
2017-07-18T00:49:47.189Z,5.00
2017-07-18T00:52:13.985Z,5.03
2017-07-18T00:54:40.607Z,5.40
2017-07-18T00:57:07.230Z,5.07
2017-07-18T00:59:33.858Z,5.30
2017-07-18T01:02:00.509Z,4.77
2017-07-18T01:04:27.125Z,4.83
2017-07-18T01:06:54.181Z,4.97
2017-07-18T01:09:20.791Z,4.80
2017-07-18T01:11:47.428Z,4.90
2017-07-18T01:14:14.152Z,5.20
2017-07-18T01:16:40.765Z,4.80
2017-07-18T01:19:07.385Z,5.07
2017-07-18T01:21:34.226Z,4.97
2017-07-18T01:24:00.860Z,4.77
2017-07-18T01:26:27.481Z,5.10
2017-07-18T01:28:54.492Z,5.10
2017-07-18T01:31:21.103Z,5.00
2017-07-18T01:33:47.708Z,4.73
2017-07-18T01:36:14.381Z,4.60
2017-07-18T01:38:41.000Z,4.67
2017-07-18T01:41:07.648Z,5.10
2017-07-18T01:43:34.316Z,4.97
2017-07-18T01:46:00.955Z,4.67
2017-07-18T01:48:27.633Z,4.90
2017-07-18T01:50:54.520Z,4.60
2017-07-18T01:53:21.132Z,4.63
2017-07-18T01:55:47.785Z,4.77
2017-07-18T01:58:14.412Z,4.80
2017-07-18T02:00:41.026Z,4.27
2017-07-18T02:03:07.653Z,4.80
2017-07-18T02:05:34.371Z,4.20
2017-07-18T02:08:00.999Z,4.90
2017-07-18T02:10:27.640Z,4.90
2017-07-18T02:12:54.382Z,4.70
2017-07-18T02:15:21.005Z,4.60
2017-07-18T02:17:47.616Z,4.57
2017-07-18T02:20:14.420Z,4.77
2017-07-18T02:22:41.024Z,4.47
2017-07-18T02:25:07.707Z,5.53
2017-07-18T02:27:34.591Z,4.60
2017-07-18T02:30:01.211Z,5.00
2017-07-18T02:32:27.855Z,4.73
2017-07-18T02:34:54.598Z,4.63
2017-07-18T02:37:21.229Z,5.40
2017-07-18T02:39:47.856Z,4.80
2017-07-18T02:42:14.620Z,4.77
2017-07-18T02:44:41.243Z,5.00
2017-07-18T02:47:07.868Z,4.40
2017-07-18T02:49:34.836Z,4.80
2017-07-18T02:52:01.490Z,4.30
2017-07-18T02:54:34.046Z,5.20
2017-07-18T02:57:00.680Z,4.97
2017-07-18T02:59:27.288Z,5.30
2017-07-18T03:01:53.932Z,5.40
2017-07-18T03:04:20.547Z,5.60
2017-07-18T03:06:47.160Z,5.33
2017-07-18T03:09:14.421Z,5.70
2017-07-18T03:11:41.047Z,5.37
2017-07-18T03:14:07.666Z,5.40
2017-07-18T03:16:34.491Z,5.80
2017-07-18T03:19:01.121Z,5.00
2017-07-18T03:21:27.755Z,4.93
2017-07-18T03:23:54.395Z,5.30
2017-07-18T03:26:21.032Z,5.40
2017-07-18T03:28:47.637Z,4.70
2017-07-18T03:31:14.642Z,5.13
2017-07-18T03:33:41.344Z,5.23
2017-07-18T03:36:07.962Z,5.87
2017-07-18T03:38:34.733Z,5.53
2017-07-18T03:41:01.353Z,6.30
2017-07-18T03:43:27.960Z,5.67
2017-07-18T03:45:54.689Z,5.30
2017-07-18T03:48:21.296Z,5.33
2017-07-18T03:50:47.933Z,5.53
2017-07-18T03:53:14.750Z,5.87
2017-07-18T03:55:41.397Z,5.70
2017-07-18T03:58:08.001Z,6.00
2017-07-18T04:00:34.647Z,5.80
2017-07-18T04:03:01.289Z,5.90
2017-07-18T04:05:27.892Z,6.13
2017-07-18T04:07:54.557Z,6.10
2017-07-18T04:10:21.166Z,6.13
2017-07-18T04:12:47.791Z,6.43
2017-07-18T04:15:14.781Z,6.40
2017-07-18T04:17:41.544Z,6.10
2017-07-18T04:20:08.183Z,6.97
2017-07-18T04:22:35.042Z,6.20
2017-07-18T04:25:01.664Z,5.83
2017-07-18T04:27:28.278Z,6.00
2017-07-18T04:29:54.899Z,6.07
2017-07-18T04:32:21.510Z,6.13
2017-07-18T04:34:48.162Z,6.27
2017-07-18T04:37:15.001Z,6.53
2017-07-18T04:39:41.652Z,6.80
2017-07-18T04:42:08.269Z,6.30
2017-07-18T04:44:35.040Z,6.90
2017-07-18T04:47:01.644Z,6.60
2017-07-18T04:49:28.256Z,6.33
2017-07-18T04:51:54.896Z,6.53
2017-07-18T04:54:21.512Z,6.53
2017-07-18T04:56:48.159Z,6.20
2017-07-18T04:59:14.840Z,6.03
2017-07-18T05:01:41.478Z,6.17
2017-07-18T05:04:08.095Z,6.60
2017-07-18T05:06:35.053Z,6.40
2017-07-18T05:09:01.667Z,6.47
2017-07-18T05:11:28.292Z,6.40
2017-07-18T05:13:54.965Z,6.27
2017-07-18T05:16:21.585Z,6.03
2017-07-18T05:18:48.199Z,6.37
2017-07-18T05:21:14.864Z,6.43
2017-07-18T05:23:41.509Z,6.00
2017-07-18T05:26:08.138Z,7.13
2017-07-18T05:28:34.817Z,6.60
2017-07-18T05:31:01.434Z,6.00
2017-07-18T05:33:28.064Z,5.80
2017-07-18T05:35:54.824Z,5.73
2017-07-18T05:38:21.425Z,5.77
2017-07-18T05:40:48.036Z,5.87
2017-07-18T05:43:14.847Z,5.53
2017-07-18T05:45:41.471Z,5.67
2017-07-18T05:48:14.271Z,5.40
2017-07-18T05:50:41.290Z,6.10
2017-07-18T05:53:08.200Z,6.20
2017-07-18T05:55:34.835Z,5.60
2017-07-18T05:58:01.447Z,5.33
2017-07-18T06:00:28.054Z,5.90
2017-07-18T06:02:54.681Z,5.57
2017-07-18T06:05:21.312Z,5.83
2017-07-18T06:07:47.945Z,5.37
2017-07-18T06:10:14.668Z,5.40
2017-07-18T06:12:41.281Z,5.13
2017-07-18T06:15:07.888Z,5.27
2017-07-18T06:17:34.880Z,5.43
2017-07-18T06:20:01.480Z,5.30
2017-07-18T06:22:28.094Z,5.00
2017-07-18T06:24:54.769Z,5.00
2017-07-18T06:27:21.375Z,5.43
2017-07-18T06:29:47.996Z,5.60
2017-07-18T06:32:14.730Z,4.57
2017-07-18T06:34:41.352Z,5.43
2017-07-18T06:37:07.956Z,4.60
2017-07-18T06:39:35.033Z,4.80
2017-07-18T06:42:01.685Z,4.23
2017-07-18T06:44:28.300Z,4.17
2017-07-18T06:46:54.945Z,4.17
2017-07-18T06:49:21.613Z,4.10
2017-07-18T06:51:48.233Z,3.73
2017-07-18T06:54:15.135Z,4.27
2017-07-18T06:56:41.773Z,4.00
2017-07-18T06:59:08.384Z,4.07
2017-07-18T07:01:35.199Z,4.30
2017-07-18T07:04:01.827Z,3.40
2017-07-18T07:06:28.436Z,4.30
2017-07-18T07:08:55.160Z,4.20
2017-07-18T07:11:21.768Z,3.60
2017-07-18T07:13:48.389Z,3.80
2017-07-18T07:16:15.271Z,4.00
2017-07-18T07:18:41.919Z,4.03
2017-07-18T07:21:08.552Z,3.73
2017-07-18T07:23:35.272Z,3.80
2017-07-18T07:26:01.880Z,4.00
2017-07-18T07:28:28.490Z,4.20
2017-07-18T07:30:55.151Z,3.53
2017-07-18T07:33:21.892Z,3.97
2017-07-18T07:35:49.031Z,3.90
2017-07-18T07:38:16.016Z,3.80
2017-07-18T07:40:42.724Z,3.80
2017-07-18T07:43:09.652Z,4.07
2017-07-18T07:45:36.577Z,3.70
2017-07-18T07:48:03.188Z,4.13
2017-07-18T07:50:29.797Z,3.63
2017-07-18T07:52:56.597Z,4.00
2017-07-18T07:55:23.200Z,4.13
2017-07-18T07:57:49.808Z,4.13
2017-07-18T08:00:16.617Z,3.70
2017-07-18T08:02:43.257Z,3.87
2017-07-18T08:05:09.885Z,4.00
2017-07-18T08:07:36.544Z,4.13
2017-07-18T08:10:03.156Z,4.27
2017-07-18T08:12:29.774Z,4.20
2017-07-18T08:14:56.400Z,3.63
2017-07-18T08:17:23.087Z,3.90
2017-07-18T08:19:49.688Z,3.80
2017-07-18T08:22:16.429Z,4.03
2017-07-18T08:24:43.161Z,3.90
2017-07-18T08:27:09.808Z,3.90
2017-07-18T08:29:36.461Z,4.07
2017-07-18T08:32:03.067Z,3.80
2017-07-18T08:34:29.696Z,4.00
2017-07-18T08:36:56.499Z,3.87
2017-07-18T08:39:23.128Z,3.80
2017-07-18T08:41:49.742Z,3.70
2017-07-18T08:44:16.512Z,3.70
2017-07-18T08:46:43.269Z,4.00
2017-07-18T08:49:10.430Z,3.53
2017-07-18T08:51:37.096Z,3.77
2017-07-18T08:54:03.780Z,4.30
2017-07-18T08:56:30.416Z,3.70
2017-07-18T08:58:57.188Z,3.93
2017-07-18T09:01:23.800Z,3.87
2017-07-18T09:03:50.408Z,3.60
2017-07-18T09:06:17.239Z,3.70
2017-07-18T09:08:43.911Z,4.80
2017-07-18T09:11:10.554Z,3.70
2017-07-18T09:13:37.199Z,3.60
2017-07-18T09:16:03.843Z,3.70
2017-07-18T09:18:30.451Z,3.77
2017-07-18T09:20:57.484Z,3.57
2017-07-18T09:23:24.092Z,3.30
2017-07-18T09:25:50.701Z,3.60
2017-07-18T09:28:17.392Z,3.50
2017-07-18T09:30:43.997Z,3.60
2017-07-18T09:33:10.621Z,3.40
2017-07-18T09:35:37.357Z,3.60
2017-07-18T09:38:04.006Z,3.60
2017-07-18T09:40:30.616Z,3.83
2017-07-18T09:42:57.447Z,3.73
2017-07-18T09:45:24.052Z,3.67
2017-07-18T09:47:50.714Z,3.90
2017-07-18T09:50:17.373Z,4.10
2017-07-18T09:52:44.023Z,3.80
2017-07-18T09:55:10.652Z,3.70
2017-07-18T09:57:37.427Z,3.20
2017-07-18T10:00:04.031Z,3.33
2017-07-18T10:02:30.640Z,3.40
2017-07-18T10:04:57.502Z,3.60
2017-07-18T10:07:24.113Z,3.13
2017-07-18T10:09:50.716Z,3.37
2017-07-18T10:12:17.659Z,3.70
2017-07-18T10:14:44.510Z,3.37
2017-07-18T10:17:11.180Z,3.37
2017-07-18T10:19:37.839Z,3.20
2017-07-18T10:22:04.473Z,3.43
2017-07-18T10:24:31.101Z,3.50
2017-07-18T10:26:57.759Z,3.50
2017-07-18T10:29:24.368Z,3.30
2017-07-18T10:31:50.979Z,3.20
2017-07-18T10:34:17.867Z,3.40
2017-07-18T10:36:44.537Z,3.50
2017-07-18T10:39:11.149Z,3.20
2017-07-18T10:41:37.921Z,3.40
2017-07-18T10:44:04.556Z,2.90
2017-07-18T10:46:31.165Z,3.10
2017-07-18T10:48:57.892Z,2.80
2017-07-18T10:51:24.509Z,2.97
2017-07-18T10:53:51.123Z,2.77
2017-07-18T10:56:18.020Z,3.17
2017-07-18T10:58:44.660Z,3.33
2017-07-18T11:01:11.326Z,3.50
2017-07-18T11:03:38.115Z,3.17
2017-07-18T11:06:04.717Z,3.23
2017-07-18T11:08:31.327Z,2.90
2017-07-18T11:10:58.149Z,2.90
2017-07-18T11:13:24.755Z,3.00
2017-07-18T11:15:51.371Z,2.80
2017-07-18T11:18:18.008Z,3.13
2017-07-18T11:20:44.653Z,2.87
2017-07-18T11:23:11.268Z,2.70
2017-07-18T11:25:38.017Z,2.63
2017-07-18T11:28:04.643Z,2.87
2017-07-18T11:30:31.242Z,2.60
2017-07-18T11:32:58.016Z,2.57
2017-07-18T11:35:24.627Z,2.63
2017-07-18T11:37:51.243Z,2.50
2017-07-18T11:40:18.235Z,2.50
2017-07-18T11:42:44.895Z,2.60
2017-07-18T11:45:11.574Z,2.40
2017-07-18T11:47:38.273Z,2.43
2017-07-18T11:50:04.950Z,2.50
2017-07-18T11:52:31.589Z,2.63
2017-07-18T11:54:58.364Z,2.80
2017-07-18T11:57:24.976Z,2.70
2017-07-18T11:59:51.583Z,2.60
2017-07-18T12:02:18.445Z,2.37
2017-07-18T12:04:45.105Z,2.90
2017-07-18T12:07:11.955Z,2.80
2017-07-18T12:09:38.649Z,2.87
2017-07-18T12:12:05.342Z,2.40
2017-07-18T12:14:31.973Z,2.70
2017-07-18T12:16:58.788Z,2.37
2017-07-18T12:19:25.404Z,2.30
2017-07-18T12:21:52.012Z,2.33
2017-07-18T12:24:19.064Z,2.40
2017-07-18T12:26:45.826Z,2.57
2017-07-18T12:29:12.582Z,2.47
2017-07-18T12:31:39.317Z,2.63
2017-07-18T12:34:05.983Z,2.83
2017-07-18T12:36:32.660Z,2.63
2017-07-18T12:38:59.720Z,2.70
2017-07-18T12:41:26.320Z,2.50
2017-07-18T12:43:52.932Z,2.77
2017-07-18T12:46:19.736Z,2.27
2017-07-18T12:48:46.399Z,2.40
2017-07-18T12:51:13.052Z,2.30
2017-07-18T12:53:39.809Z,2.30
2017-07-18T12:56:06.426Z,2.37
2017-07-18T12:58:33.044Z,2.47
2017-07-18T13:01:00.014Z,2.47
2017-07-18T13:03:26.662Z,2.50
2017-07-18T13:05:53.321Z,2.50
2017-07-18T13:08:20.049Z,2.70
2017-07-18T13:10:46.660Z,2.53
2017-07-18T13:13:13.269Z,2.60
2017-07-18T13:15:39.933Z,2.50
2017-07-18T13:18:06.540Z,2.40
2017-07-18T13:20:33.158Z,2.73
2017-07-18T13:22:59.968Z,2.50
2017-07-18T13:25:26.598Z,2.17
2017-07-18T13:27:53.265Z,2.50
2017-07-18T13:30:20.093Z,2.40
2017-07-18T13:32:46.720Z,2.40
2017-07-18T13:35:13.334Z,2.30
2017-07-18T13:37:40.116Z,2.33
2017-07-18T13:40:06.723Z,2.57
2017-07-18T13:42:33.328Z,2.60
2017-07-18T13:45:00.008Z,2.77
2017-07-18T13:47:26.628Z,2.50
2017-07-18T13:49:53.459Z,2.30
2017-07-18T13:52:20.119Z,2.30
2017-07-18T13:54:46.740Z,2.50
2017-07-18T13:57:13.366Z,2.57
2017-07-18T13:59:40.029Z,2.63
2017-07-18T14:02:06.697Z,2.30
2017-07-18T14:04:33.313Z,2.70
2017-07-18T14:07:01.491Z,2.27
2017-07-18T14:09:28.157Z,2.33
2017-07-18T14:11:54.942Z,2.47
2017-07-18T14:14:21.848Z,2.80
2017-07-18T14:16:48.480Z,2.60
2017-07-18T14:19:16.178Z,2.50
2017-07-18T14:21:43.252Z,2.30
2017-07-18T14:24:09.864Z,3.50
2017-07-18T14:26:36.477Z,2.40
2017-07-18T14:29:03.420Z,2.40
2017-07-18T14:31:30.894Z,2.73
2017-07-18T14:33:57.576Z,2.20
2017-07-18T14:36:24.399Z,2.53
2017-07-18T14:38:51.054Z,2.40
2017-07-18T14:41:17.798Z,2.40
2017-07-18T14:43:44.443Z,2.93
2017-07-18T14:46:11.073Z,2.80
2017-07-18T14:48:37.684Z,2.30
2017-07-18T14:51:04.456Z,2.53
2017-07-18T14:53:31.071Z,2.40
2017-07-18T14:55:57.749Z,2.70
2017-07-18T14:58:24.885Z,2.50
2017-07-18T15:00:51.557Z,2.50
2017-07-18T15:03:18.253Z,2.50
2017-07-18T15:05:45.037Z,2.90
2017-07-18T15:08:11.648Z,2.63
2017-07-18T15:10:38.264Z,2.70
2017-07-18T15:13:05.068Z,2.60
2017-07-18T15:15:31.675Z,2.50
2017-07-18T15:17:58.320Z,2.63
2017-07-18T15:20:25.389Z,2.57
2017-07-18T15:22:52.028Z,2.40
2017-07-18T15:25:18.708Z,2.77
2017-07-18T15:27:45.488Z,2.70
2017-07-18T15:30:12.116Z,2.77
2017-07-18T15:32:38.827Z,2.70
2017-07-18T15:35:07.412Z,2.53
2017-07-18T15:37:34.183Z,2.60
2017-07-18T15:40:00.802Z,2.67
2017-07-18T15:42:27.559Z,2.50
2017-07-18T15:44:54.714Z,2.50
2017-07-18T15:47:21.396Z,2.50
2017-07-18T15:49:48.466Z,2.63
2017-07-18T15:52:15.140Z,2.60
2017-07-18T15:54:41.748Z,2.70
2017-07-18T15:57:08.547Z,2.40
2017-07-18T15:59:35.166Z,2.70
2017-07-18T16:02:01.775Z,2.83
2017-07-18T16:04:28.434Z,2.70
2017-07-18T16:06:55.419Z,2.77
2017-07-18T16:09:22.144Z,2.80
2017-07-18T16:11:48.828Z,2.90
2017-07-18T16:14:15.435Z,2.63
2017-07-18T16:16:42.048Z,2.97
2017-07-18T16:19:08.731Z,2.60
2017-07-18T16:21:35.331Z,2.97
2017-07-18T16:24:01.937Z,2.63
2017-07-18T16:26:28.711Z,3.13
2017-07-18T16:28:55.382Z,3.00
2017-07-18T16:31:22.239Z,2.80
2017-07-18T16:33:48.924Z,2.63
2017-07-18T16:36:15.601Z,3.00
2017-07-18T16:38:42.208Z,3.00
2017-07-18T16:41:08.939Z,2.90
2017-07-18T16:43:35.544Z,2.87
2017-07-18T16:46:02.160Z,2.67
2017-07-18T16:48:28.839Z,2.40
2017-07-18T16:51:05.731Z,2.80
2017-07-18T16:53:32.473Z,2.40
2017-07-18T16:55:59.158Z,2.87
2017-07-18T16:58:25.867Z,3.07
2017-07-18T17:00:52.922Z,2.77
2017-07-18T17:03:19.600Z,2.87
2017-07-18T17:05:46.315Z,2.57
2017-07-18T17:08:13.160Z,2.60
2017-07-18T17:10:39.780Z,2.90
2017-07-18T17:13:06.411Z,2.73
2017-07-18T17:15:33.065Z,2.77
2017-07-18T17:17:59.679Z,3.07
2017-07-18T17:20:26.475Z,2.93
2017-07-18T17:22:53.234Z,2.90
2017-07-18T17:25:19.901Z,3.10
2017-07-18T17:27:46.513Z,2.70
2017-07-18T17:30:20.645Z,2.67
2017-07-18T17:32:51.043Z,2.83
2017-07-18T17:35:21.568Z,3.00
2017-07-18T17:37:48.239Z,3.00
2017-07-18T17:40:14.874Z,2.70
2017-07-18T17:42:41.650Z,3.00
2017-07-18T17:45:08.273Z,2.80
2017-07-18T17:47:34.888Z,3.10
2017-07-18T17:50:01.580Z,2.67
2017-07-18T17:52:28.194Z,2.90
2017-07-18T17:54:54.890Z,3.17
2017-07-18T17:57:21.729Z,3.23
2017-07-18T17:59:48.409Z,3.20
2017-07-18T18:02:15.060Z,2.77
2017-07-18T18:04:41.700Z,2.90
2017-07-18T18:07:08.320Z,3.00
2017-07-18T18:09:34.931Z,3.50
2017-07-18T18:12:01.656Z,2.77
2017-07-18T18:14:28.279Z,2.90
2017-07-18T18:16:55.148Z,3.10
2017-07-18T18:19:21.860Z,2.90
2017-07-18T18:21:48.472Z,3.47
2017-07-18T18:24:15.085Z,3.37
2017-07-18T18:26:41.820Z,3.17
2017-07-18T18:29:08.436Z,3.00
2017-07-18T18:31:35.044Z,2.67
2017-07-18T18:34:01.765Z,3.00
2017-07-18T18:36:28.377Z,3.53
2017-07-18T18:38:55.652Z,3.23
2017-07-18T18:41:22.355Z,3.13
2017-07-18T18:43:48.976Z,3.30
2017-07-18T18:46:15.589Z,3.47
2017-07-18T18:48:42.246Z,3.43
2017-07-18T18:51:08.900Z,3.40
2017-07-18T18:53:35.564Z,3.37
2017-07-18T18:56:02.228Z,3.43
2017-07-18T18:58:28.836Z,3.40
2017-07-18T19:00:55.580Z,3.73
2017-07-18T19:03:22.320Z,3.17
2017-07-18T19:05:48.948Z,3.63
2017-07-18T19:08:15.589Z,3.53
2017-07-18T19:10:42.246Z,3.63
2017-07-18T19:13:08.857Z,3.37
2017-07-18T19:15:35.465Z,5.40
2017-07-18T19:18:02.237Z,3.57
2017-07-18T19:20:28.849Z,4.80
2017-07-18T19:22:55.743Z,3.60
2017-07-18T19:25:22.908Z,3.80
2017-07-18T19:27:49.545Z,3.27
2017-07-18T19:30:16.236Z,3.40
2017-07-18T19:32:42.863Z,3.60
2017-07-18T19:35:09.473Z,3.50
2017-07-18T19:37:36.076Z,3.23
2017-07-18T19:40:02.709Z,3.40
2017-07-18T19:42:29.389Z,3.80
2017-07-18T19:47:47.514Z,3.33
2017-07-18T19:50:14.296Z,4.00
2017-07-18T19:52:40.894Z,3.80
2017-07-18T19:55:07.527Z,3.37
2017-07-18T19:57:34.122Z,3.93
2017-07-18T20:00:00.743Z,3.50
2017-07-18T20:02:27.361Z,3.87
2017-07-18T20:04:54.444Z,4.13
2017-07-18T20:07:21.072Z,4.73
2017-07-18T20:09:47.887Z,5.20
2017-07-18T20:12:14.570Z,3.80
2017-07-18T20:14:41.189Z,4.37
2017-07-18T20:17:07.824Z,4.40
2017-07-18T20:19:34.415Z,4.17
2017-07-18T20:22:01.053Z,3.50
2017-07-18T20:24:28.026Z,4.47
2017-07-18T20:26:55.208Z,4.37
2017-07-18T20:29:21.950Z,3.80
2017-07-18T20:31:48.805Z,4.30
2017-07-18T20:34:15.413Z,3.87
2017-07-18T20:36:42.037Z,4.33
2017-07-18T20:39:08.650Z,4.23
2017-07-18T20:41:35.257Z,4.63
2017-07-18T20:44:01.907Z,3.90
2017-07-18T20:46:28.657Z,7.37
2017-07-18T20:48:55.336Z,4.63
2017-07-18T20:51:21.982Z,4.30
2017-07-18T20:53:48.779Z,4.10
2017-07-18T20:56:15.463Z,4.00
2017-07-18T20:58:42.063Z,4.30
2017-07-18T21:01:08.691Z,4.30
2017-07-18T21:03:35.290Z,5.00
2017-07-18T21:06:01.919Z,4.90
2017-07-18T21:08:28.534Z,4.43
2017-07-18T21:10:55.214Z,5.23
2017-07-18T21:13:21.872Z,4.90
2017-07-18T21:15:48.722Z,4.83
2017-07-18T21:18:15.334Z,5.10
2017-07-18T21:20:41.936Z,4.90
2017-07-18T21:23:08.696Z,4.57
2017-07-18T21:25:35.298Z,5.33
2017-07-18T21:28:01.923Z,4.90
2017-07-18T21:30:28.584Z,4.77
2017-07-18T21:32:55.306Z,5.00
2017-07-18T21:35:21.971Z,5.60
2017-07-18T21:37:48.798Z,5.67
2017-07-18T21:40:15.403Z,5.33
2017-07-18T21:42:41.998Z,5.20
2017-07-18T21:45:08.909Z,5.00
2017-07-18T21:47:35.515Z,4.50
2017-07-18T21:50:02.115Z,4.70
2017-07-18T21:52:28.795Z,5.23
2017-07-18T21:54:55.464Z,4.87
2017-07-18T21:57:22.278Z,4.90
2017-07-18T21:59:48.960Z,4.93
2017-07-18T22:02:15.562Z,5.10
2017-07-18T22:04:42.168Z,5.00
2017-07-18T22:07:08.935Z,5.67
2017-07-18T22:09:35.535Z,5.40
2017-07-18T22:12:02.133Z,5.53
2017-07-18T22:14:28.913Z,5.30
2017-07-18T22:16:55.554Z,5.57
2017-07-18T22:19:23.161Z,5.70
2017-07-18T22:21:49.940Z,5.40
2017-07-18T22:24:16.554Z,5.27
2017-07-18T22:26:43.150Z,5.77
2017-07-18T22:29:10.015Z,5.20
2017-07-18T22:31:36.622Z,5.70
2017-07-18T22:34:03.242Z,5.60
2017-07-18T22:36:30.437Z,5.80
2017-07-18T22:38:57.050Z,6.27
2017-07-18T22:41:23.736Z,6.10
2017-07-18T22:43:50.362Z,6.27
2017-07-18T22:46:16.968Z,5.70
2017-07-18T22:48:43.570Z,6.20
2017-07-18T22:51:10.295Z,6.30
2017-07-18T22:53:36.902Z,6.53
2017-07-18T22:56:03.502Z,6.03
2017-07-18T22:58:30.130Z,6.03
2017-07-18T23:00:56.833Z,5.83
2017-07-18T23:03:23.507Z,5.80
2017-07-18T23:05:50.306Z,6.50
2017-07-18T23:08:16.945Z,6.37
2017-07-18T23:10:43.695Z,6.67
2017-07-18T23:13:10.648Z,6.33
2017-07-18T23:15:37.239Z,5.93
2017-07-18T23:18:03.843Z,6.70
2017-07-18T23:20:30.749Z,6.73
2017-07-18T23:22:57.394Z,6.40
2017-07-18T23:25:24.119Z,6.20
2017-07-18T23:27:50.838Z,6.90
2017-07-18T23:30:17.471Z,6.90
2017-07-18T23:32:44.092Z,6.67
2017-07-18T23:35:10.739Z,7.03
2017-07-18T23:37:37.338Z,6.70
2017-07-18T23:40:04.308Z,7.30
2017-07-18T23:42:30.958Z,6.87
2017-07-18T23:44:57.639Z,7.47
2017-07-18T23:47:24.491Z,6.80
2017-07-18T23:49:52.063Z,7.40
2017-07-18T23:52:18.672Z,7.47
2017-07-18T23:54:45.292Z,7.90
2017-07-18T23:57:12.309Z,7.00
2017-07-18T23:59:38.910Z,7.77
